sensor_id;sensor_type;location;lat;lon;timestamp;pressure;altitude;pressure_sealevel;temperature
74750;BMP280;63269;53.330;-6.288;2023-03-16T00:02:02;99658.69;;;20.20
74750;BMP280;63269;53.330;-6.288;2023-03-16T00:04:28;99656.03;;;20.20
74750;BMP280;63269;53.330;-6.288;2023-03-16T00:06:54;99645.84;;;20.18
74750;BMP280;63269;53.330;-6.288;2023-03-16T00:09:20;99645.84;;;20.18
74750;BMP280;63269;53.330;-6.288;2023-03-16T00:11:45;99644.38;;;20.17
74750;BMP280;63269;53.330;-6.288;2023-03-16T00:14:11;99640.97;;;20.17
74750;BMP280;63269;53.330;-6.288;2023-03-16T00:16:36;99636.09;;;20.15
74750;BMP280;63269;53.330;-6.288;2023-03-16T00:19:02;99636.09;;;20.15
74750;BMP280;63269;53.330;-6.288;2023-03-16T00:21:27;99636.56;;;20.14
74750;BMP280;63269;53.330;-6.288;2023-03-16T00:23:55;99636.56;;;20.14
74750;BMP280;63269;53.330;-6.288;2023-03-16T00:26:20;99635.53;;;20.11
74750;BMP280;63269;53.330;-6.288;2023-03-16T00:28:47;99635.53;;;20.11
74750;BMP280;63269;53.330;-6.288;2023-03-16T00:31:12;99631.38;;;20.10
74750;BMP280;63269;53.330;-6.288;2023-03-16T00:33:39;99635.97;;;20.10
74750;BMP280;63269;53.330;-6.288;2023-03-16T00:36:07;99627.25;;;20.09
74750;BMP280;63269;53.330;-6.288;2023-03-16T00:38:39;99627.25;;;20.09
74750;BMP280;63269;53.330;-6.288;2023-03-16T00:41:06;99617.81;;;20.08
74750;BMP280;63269;53.330;-6.288;2023-03-16T00:43:33;99623.59;;;20.07
74750;BMP280;63269;53.330;-6.288;2023-03-16T00:46:12;99610.75;;;20.05
74750;BMP280;63269;53.330;-6.288;2023-03-16T00:48:40;99602.00;;;20.05
74750;BMP280;63269;53.330;-6.288;2023-03-16T00:51:10;99606.59;;;20.04
74750;BMP280;63269;53.330;-6.288;2023-03-16T00:53:37;99598.63;;;20.04
74750;BMP280;63269;53.330;-6.288;2023-03-16T00:56:04;99603.94;;;20.04
74750;BMP280;63269;53.330;-6.288;2023-03-16T00:58:31;99603.94;;;20.04
74750;BMP280;63269;53.330;-6.288;2023-03-16T01:01:24;99581.16;;;20.03
74750;BMP280;63269;53.330;-6.288;2023-03-16T01:03:51;99581.16;;;20.03
74750;BMP280;63269;53.330;-6.288;2023-03-16T01:06:18;99580.16;;;20.01
74750;BMP280;63269;53.330;-6.288;2023-03-16T01:08:44;99580.16;;;20.01
74750;BMP280;63269;53.330;-6.288;2023-03-16T01:11:16;99576.75;;;20.00
74750;BMP280;63269;53.330;-6.288;2023-03-16T01:13:42;99570.72;;;20.00
74750;BMP280;63269;53.330;-6.288;2023-03-16T01:16:08;99583.25;;;19.99
74750;BMP280;63269;53.330;-6.288;2023-03-16T01:18:34;99581.34;;;20.00
74750;BMP280;63269;53.330;-6.288;2023-03-16T01:21:04;99581.34;;;20.00
74750;BMP280;63269;53.330;-6.288;2023-03-16T01:23:30;99582.25;;;19.96
74750;BMP280;63269;53.330;-6.288;2023-03-16T01:25:56;99584.47;;;19.98
74750;BMP280;63269;53.330;-6.288;2023-03-16T01:28:23;99576.19;;;19.96
74750;BMP280;63269;53.330;-6.288;2023-03-16T01:30:53;99576.19;;;19.96
74750;BMP280;63269;53.330;-6.288;2023-03-16T01:33:23;99573.97;;;19.94
74750;BMP280;63269;53.330;-6.288;2023-03-16T01:35:57;99573.97;;;19.94
74750;BMP280;63269;53.330;-6.288;2023-03-16T01:38:23;99566.00;;;19.94
74750;BMP280;63269;53.330;-6.288;2023-03-16T01:40:50;99565.00;;;19.92
74750;BMP280;63269;53.330;-6.288;2023-03-16T01:43:20;99557.72;;;19.92
74750;BMP280;63269;53.330;-6.288;2023-03-16T01:51:24;99544.44;;;19.92
74750;BMP280;63269;53.330;-6.288;2023-03-16T01:53:56;99540.75;;;19.90
74750;BMP280;63269;53.330;-6.288;2023-03-16T01:56:26;99528.91;;;19.91
74750;BMP280;63269;53.330;-6.288;2023-03-16T01:58:55;99528.91;;;19.91
74750;BMP280;63269;53.330;-6.288;2023-03-16T02:01:27;99541.47;;;19.90
74750;BMP280;63269;53.330;-6.288;2023-03-16T02:04:07;99529.81;;;19.88
74750;BMP280;63269;53.330;-6.288;2023-03-16T02:06:38;99537.09;;;19.87
74750;BMP280;63269;53.330;-6.288;2023-03-16T02:09:04;99537.09;;;19.87
74750;BMP280;63269;53.330;-6.288;2023-03-16T02:11:30;99535.59;;;19.86
74750;BMP280;63269;53.330;-6.288;2023-03-16T02:14:01;99523.78;;;19.87
74750;BMP280;63269;53.330;-6.288;2023-03-16T02:16:29;99514.31;;;19.86
74750;BMP280;63269;53.330;-6.288;2023-03-16T02:18:55;99514.31;;;19.86
74750;BMP280;63269;53.330;-6.288;2023-03-16T02:24:00;99506.03;;;19.84
74750;BMP280;63269;53.330;-6.288;2023-03-16T02:26:42;99506.03;;;19.84
74750;BMP280;63269;53.330;-6.288;2023-03-16T02:32:08;99493.66;;;19.81
74750;BMP280;63269;53.330;-6.288;2023-03-16T02:34:34;99493.66;;;19.81
74750;BMP280;63269;53.330;-6.288;2023-03-16T02:37:00;99494.84;;;19.80
74750;BMP280;63269;53.330;-6.288;2023-03-16T02:39:26;99496.31;;;19.81
74750;BMP280;63269;53.330;-6.288;2023-03-16T02:41:52;99496.31;;;19.81
74750;BMP280;63269;53.330;-6.288;2023-03-16T02:44:34;99480.38;;;19.81
74750;BMP280;63269;53.330;-6.288;2023-03-16T02:47:12;99480.38;;;19.81
74750;BMP280;63269;53.330;-6.288;2023-03-16T02:49:42;99478.13;;;19.80
74750;BMP280;63269;53.330;-6.288;2023-03-16T02:52:08;99466.06;;;19.79
74750;BMP280;63269;53.330;-6.288;2023-03-16T02:54:34;99476.38;;;19.76
74750;BMP280;63269;53.330;-6.288;2023-03-16T02:57:00;99476.38;;;19.76
74750;BMP280;63269;53.330;-6.288;2023-03-16T02:59:25;99470.63;;;19.78
74750;BMP280;63269;53.330;-6.288;2023-03-16T03:01:51;99470.34;;;19.76
74750;BMP280;63269;53.330;-6.288;2023-03-16T03:04:16;99479.03;;;19.76
74750;BMP280;63269;53.330;-6.288;2023-03-16T03:06:42;99477.88;;;19.77
74750;BMP280;63269;53.330;-6.288;2023-03-16T03:09:09;99474.47;;;19.77
74750;BMP280;63269;53.330;-6.288;2023-03-16T03:11:37;99474.47;;;19.77
74750;BMP280;63269;53.330;-6.288;2023-03-16T03:14:03;99455.09;;;19.76
74750;BMP280;63269;53.330;-6.288;2023-03-16T03:16:29;99449.78;;;19.76
74750;BMP280;63269;53.330;-6.288;2023-03-16T03:18:56;99449.78;;;19.76
74750;BMP280;63269;53.330;-6.288;2023-03-16T03:21:21;99442.72;;;19.73
74750;BMP280;63269;53.330;-6.288;2023-03-16T03:23:48;99452.88;;;19.75
74750;BMP280;63269;53.330;-6.288;2023-03-16T03:26:15;99446.09;;;19.74
74750;BMP280;63269;53.330;-6.288;2023-03-16T03:28:41;99433.53;;;19.74
74750;BMP280;63269;53.330;-6.288;2023-03-16T03:31:11;99433.53;;;19.74
74750;BMP280;63269;53.330;-6.288;2023-03-16T03:33:37;99438.59;;;19.72
74750;BMP280;63269;53.330;-6.288;2023-03-16T03:36:02;99436.66;;;19.73
74750;BMP280;63269;53.330;-6.288;2023-03-16T03:38:28;99432.09;;;19.73
74750;BMP280;63269;53.330;-6.288;2023-03-16T03:40:53;99427.94;;;19.72
74750;BMP280;63269;53.330;-6.288;2023-03-16T03:43:23;99423.25;;;19.67
74750;BMP280;63269;53.330;-6.288;2023-03-16T03:45:57;99421.63;;;19.70
74750;BMP280;63269;53.330;-6.288;2023-03-16T03:48:23;99415.56;;;19.69
74750;BMP280;63269;53.330;-6.288;2023-03-16T03:50:49;99422.81;;;19.69
74750;BMP280;63269;53.330;-6.288;2023-03-16T03:53:14;99422.81;;;19.69
74750;BMP280;63269;53.330;-6.288;2023-03-16T03:55:40;99436.13;;;19.69
74750;BMP280;63269;53.330;-6.288;2023-03-16T03:58:05;99436.13;;;19.69
74750;BMP280;63269;53.330;-6.288;2023-03-16T04:00:31;99434.63;;;19.68
74750;BMP280;63269;53.330;-6.288;2023-03-16T04:02:56;99431.97;;;19.68
74750;BMP280;63269;53.330;-6.288;2023-03-16T04:05:22;99414.06;;;19.68
74750;BMP280;63269;53.330;-6.288;2023-03-16T04:07:50;99420.16;;;19.69
74750;BMP280;63269;53.330;-6.288;2023-03-16T04:10:19;99420.16;;;19.69
74750;BMP280;63269;53.330;-6.288;2023-03-16T04:12:45;99409.97;;;19.67
74750;BMP280;63269;53.330;-6.288;2023-03-16T04:15:10;99411.13;;;19.66
74750;BMP280;63269;53.330;-6.288;2023-03-16T04:17:36;99415.28;;;19.67
74750;BMP280;63269;53.330;-6.288;2023-03-16T04:20:02;99412.63;;;19.67
74750;BMP280;63269;53.330;-6.288;2023-03-16T04:22:30;99411.88;;;19.67
74750;BMP280;63269;53.330;-6.288;2023-03-16T04:24:56;99411.88;;;19.67
74750;BMP280;63269;53.330;-6.288;2023-03-16T04:27:21;99401.97;;;19.67
74750;BMP280;63269;53.330;-6.288;2023-03-16T04:29:47;99394.00;;;19.67
74750;BMP280;63269;53.330;-6.288;2023-03-16T04:32:12;99394.00;;;19.67
74750;BMP280;63269;53.330;-6.288;2023-03-16T04:34:38;99403.16;;;19.66
74750;BMP280;63269;53.330;-6.288;2023-03-16T04:37:05;99396.66;;;19.67
74750;BMP280;63269;53.330;-6.288;2023-03-16T04:39:31;99396.66;;;19.67
74750;BMP280;63269;53.330;-6.288;2023-03-16T04:41:56;99408.94;;;19.65
74750;BMP280;63269;53.330;-6.288;2023-03-16T04:44:22;99381.88;;;19.66
74750;BMP280;63269;53.330;-6.288;2023-03-16T04:46:50;99381.88;;;19.66
74750;BMP280;63269;53.330;-6.288;2023-03-16T04:49:15;99392.53;;;19.66
74750;BMP280;63269;53.330;-6.288;2023-03-16T04:51:40;99386.47;;;19.66
74750;BMP280;63269;53.330;-6.288;2023-03-16T04:54:06;99390.59;;;19.67
74750;BMP280;63269;53.330;-6.288;2023-03-16T04:56:32;99390.59;;;19.67
74750;BMP280;63269;53.330;-6.288;2023-03-16T04:58:57;99388.41;;;19.65
74750;BMP280;63269;53.330;-6.288;2023-03-16T05:01:23;99385.28;;;19.67
74750;BMP280;63269;53.330;-6.288;2023-03-16T05:03:48;99387.94;;;19.67
74750;BMP280;63269;53.330;-6.288;2023-03-16T05:06:14;99393.25;;;19.67
74750;BMP280;63269;53.330;-6.288;2023-03-16T05:08:40;99393.25;;;19.67
74750;BMP280;63269;53.330;-6.288;2023-03-16T05:11:05;99399.78;;;19.66
74750;BMP280;63269;53.330;-6.288;2023-03-16T05:13:31;99397.13;;;19.66
74750;BMP280;63269;53.330;-6.288;2023-03-16T05:15:56;99405.09;;;19.66
74750;BMP280;63269;53.330;-6.288;2023-03-16T05:18:22;99424.44;;;19.66
74750;BMP280;63269;53.330;-6.288;2023-03-16T05:20:51;99424.44;;;19.66
74750;BMP280;63269;53.330;-6.288;2023-03-16T05:23:18;99393.25;;;19.67
74750;BMP280;63269;53.330;-6.288;2023-03-16T05:25:45;99389.72;;;19.70
74750;BMP280;63269;53.330;-6.288;2023-03-16T05:28:11;99402.53;;;19.71
74750;BMP280;63269;53.330;-6.288;2023-03-16T05:30:36;99402.53;;;19.71
74750;BMP280;63269;53.330;-6.288;2023-03-16T05:33:02;99395.28;;;19.72
74750;BMP280;63269;53.330;-6.288;2023-03-16T05:35:27;99391.81;;;19.81
74750;BMP280;63269;53.330;-6.288;2023-03-16T05:37:52;99391.81;;;19.81
74750;BMP280;63269;53.330;-6.288;2023-03-16T05:40:18;99388.22;;;19.84
74750;BMP280;63269;53.330;-6.288;2023-03-16T05:42:48;99383.94;;;19.86
74750;BMP280;63269;53.330;-6.288;2023-03-16T05:45:15;99375.13;;;19.95
74750;BMP280;63269;53.330;-6.288;2023-03-16T05:47:41;99375.13;;;19.95
74750;BMP280;63269;53.330;-6.288;2023-03-16T05:50:09;99376.13;;;19.97
74750;BMP280;63269;53.330;-6.288;2023-03-16T05:52:36;99372.56;;;20.01
74750;BMP280;63269;53.330;-6.288;2023-03-16T05:55:03;99367.31;;;20.06
74750;BMP280;63269;53.330;-6.288;2023-03-16T05:57:30;99367.31;;;20.06
74750;BMP280;63269;53.330;-6.288;2023-03-16T05:59:56;99376.34;;;20.09
74750;BMP280;63269;53.330;-6.288;2023-03-16T06:02:21;99376.59;;;20.11
74750;BMP280;63269;53.330;-6.288;2023-03-16T06:04:47;99367.72;;;20.14
74750;BMP280;63269;53.330;-6.288;2023-03-16T06:07:12;99371.66;;;20.18
74750;BMP280;63269;53.330;-6.288;2023-03-16T06:09:38;99371.47;;;20.22
74750;BMP280;63269;53.330;-6.288;2023-03-16T06:12:03;99371.47;;;20.22
74750;BMP280;63269;53.330;-6.288;2023-03-16T06:14:29;99360.84;;;20.22
74750;BMP280;63269;53.330;-6.288;2023-03-16T06:16:55;99340.81;;;20.27
74750;BMP280;63269;53.330;-6.288;2023-03-16T06:19:20;99340.31;;;20.28
74750;BMP280;63269;53.330;-6.288;2023-03-16T06:21:46;99339.41;;;20.31
74750;BMP280;63269;53.330;-6.288;2023-03-16T06:24:11;99339.41;;;20.31
74750;BMP280;63269;53.330;-6.288;2023-03-16T06:26:37;99324.13;;;20.32
74750;BMP280;63269;53.330;-6.288;2023-03-16T06:29:03;99315.50;;;20.37
74750;BMP280;63269;53.330;-6.288;2023-03-16T06:31:29;99309.00;;;20.38
74750;BMP280;63269;53.330;-6.288;2023-03-16T06:33:55;99309.00;;;20.38
74750;BMP280;63269;53.330;-6.288;2023-03-16T06:36:20;99297.16;;;20.39
74750;BMP280;63269;53.330;-6.288;2023-03-16T06:38:45;99293.31;;;20.40
74750;BMP280;63269;53.330;-6.288;2023-03-16T06:41:11;99315.59;;;20.43
74750;BMP280;63269;53.330;-6.288;2023-03-16T06:43:36;99340.84;;;20.47
74750;BMP280;63269;53.330;-6.288;2023-03-16T06:46:02;99340.84;;;20.47
74750;BMP280;63269;53.330;-6.288;2023-03-16T06:48:28;99341.59;;;20.48
74750;BMP280;63269;53.330;-6.288;2023-03-16T06:50:53;99353.22;;;20.50
74750;BMP280;63269;53.330;-6.288;2023-03-16T06:53:19;99368.78;;;20.52
74750;BMP280;63269;53.330;-6.288;2023-03-16T06:55:46;99362.97;;;20.53
74750;BMP280;63269;53.330;-6.288;2023-03-16T06:58:12;99364.41;;;20.54
74750;BMP280;63269;53.330;-6.288;2023-03-16T07:00:37;99356.41;;;20.54
74750;BMP280;63269;53.330;-6.288;2023-03-16T07:03:02;99352.13;;;20.57
74750;BMP280;63269;53.330;-6.288;2023-03-16T07:05:28;99350.91;;;20.58
74750;BMP280;63269;53.330;-6.288;2023-03-16T07:07:53;99346.31;;;20.58
74750;BMP280;63269;53.330;-6.288;2023-03-16T07:10:19;99339.81;;;20.59
74750;BMP280;63269;53.330;-6.288;2023-03-16T07:12:45;99342.00;;;20.61
74750;BMP280;63269;53.330;-6.288;2023-03-16T07:15:11;99338.13;;;20.62
74750;BMP280;63269;53.330;-6.288;2023-03-16T07:17:37;99328.97;;;20.63
74750;BMP280;63269;53.330;-6.288;2023-03-16T07:20:04;99327.75;;;20.64
74750;BMP280;63269;53.330;-6.288;2023-03-16T07:22:31;99328.50;;;20.65
74750;BMP280;63269;53.330;-6.288;2023-03-16T07:24:57;99321.47;;;20.67
74750;BMP280;63269;53.330;-6.288;2023-03-16T07:27:23;99324.88;;;20.68
74750;BMP280;63269;53.330;-6.288;2023-03-16T07:29:49;99324.88;;;20.68
74750;BMP280;63269;53.330;-6.288;2023-03-16T07:32:16;99326.38;;;20.69
74750;BMP280;63269;53.330;-6.288;2023-03-16T07:34:42;99319.34;;;20.71
74750;BMP280;63269;53.330;-6.288;2023-03-16T07:37:07;99319.34;;;20.71
74750;BMP280;63269;53.330;-6.288;2023-03-16T07:39:34;99335.63;;;20.73
74750;BMP280;63269;53.330;-6.288;2023-03-16T07:41:59;99335.63;;;20.73
74750;BMP280;63269;53.330;-6.288;2023-03-16T07:44:26;99324.22;;;20.73
74750;BMP280;63269;53.330;-6.288;2023-03-16T07:46:51;99332.03;;;20.76
74750;BMP280;63269;53.330;-6.288;2023-03-16T07:49:17;99332.75;;;20.77
74750;BMP280;63269;53.330;-6.288;2023-03-16T07:51:42;99321.91;;;20.81
74750;BMP280;63269;53.330;-6.288;2023-03-16T07:54:08;99334.78;;;20.82
74750;BMP280;63269;53.330;-6.288;2023-03-16T07:56:33;99335.50;;;20.83
74750;BMP280;63269;53.330;-6.288;2023-03-16T07:58:59;99335.50;;;20.83
74750;BMP280;63269;53.330;-6.288;2023-03-16T08:01:24;99344.47;;;20.85
74750;BMP280;63269;53.330;-6.288;2023-03-16T08:03:49;99344.47;;;20.85
74750;BMP280;63269;53.330;-6.288;2023-03-16T08:06:15;99339.44;;;20.87
74750;BMP280;63269;53.330;-6.288;2023-03-16T08:08:40;99339.44;;;20.87
74750;BMP280;63269;53.330;-6.288;2023-03-16T08:11:07;99342.13;;;20.87
74750;BMP280;63269;53.330;-6.288;2023-03-16T08:13:32;99354.19;;;20.88
74750;BMP280;63269;53.330;-6.288;2023-03-16T08:15:59;99346.00;;;20.92
74750;BMP280;63269;53.330;-6.288;2023-03-16T08:18:27;99346.00;;;20.92
74750;BMP280;63269;53.330;-6.288;2023-03-16T08:20:55;99338.75;;;20.92
74750;BMP280;63269;53.330;-6.288;2023-03-16T08:23:20;99334.16;;;20.93
74750;BMP280;63269;53.330;-6.288;2023-03-16T08:25:50;99337.81;;;20.95
74750;BMP280;63269;53.330;-6.288;2023-03-16T08:28:15;99357.22;;;20.96
74750;BMP280;63269;53.330;-6.288;2023-03-16T08:30:45;99357.22;;;20.96
74750;BMP280;63269;53.330;-6.288;2023-03-16T08:33:12;99355.28;;;20.96
74750;BMP280;63269;53.330;-6.288;2023-03-16T08:35:40;99371.25;;;20.96
74750;BMP280;63269;53.330;-6.288;2023-03-16T08:38:08;99353.63;;;20.99
74750;BMP280;63269;53.330;-6.288;2023-03-16T08:40:34;99346.34;;;20.99
74750;BMP280;63269;53.330;-6.288;2023-03-16T08:42:59;99346.34;;;20.99
74750;BMP280;63269;53.330;-6.288;2023-03-16T08:45:25;99346.34;;;20.99
74750;BMP280;63269;53.330;-6.288;2023-03-16T08:47:51;99337.16;;;21.00
74750;BMP280;63269;53.330;-6.288;2023-03-16T08:50:18;99328.69;;;21.02
74750;BMP280;63269;53.330;-6.288;2023-03-16T08:52:43;99338.16;;;21.03
74750;BMP280;63269;53.330;-6.288;2023-03-16T08:55:09;99338.16;;;21.03
74750;BMP280;63269;53.330;-6.288;2023-03-16T08:57:35;99335.00;;;21.05
74750;BMP280;63269;53.330;-6.288;2023-03-16T09:00:03;99335.00;;;21.05
74750;BMP280;63269;53.330;-6.288;2023-03-16T09:02:37;99325.56;;;21.04
74750;BMP280;63269;53.330;-6.288;2023-03-16T09:05:03;99321.00;;;21.04
74750;BMP280;63269;53.330;-6.288;2023-03-16T09:07:29;99315.91;;;21.06
74750;BMP280;63269;53.330;-6.288;2023-03-16T09:09:54;99313.50;;;21.08
74750;BMP280;63269;53.330;-6.288;2023-03-16T09:12:20;99313.50;;;21.08
74750;BMP280;63269;53.330;-6.288;2023-03-16T09:14:46;99313.50;;;21.08
74750;BMP280;63269;53.330;-6.288;2023-03-16T09:17:13;99310.84;;;21.08
74750;BMP280;63269;53.330;-6.288;2023-03-16T09:19:39;99310.84;;;21.08
74750;BMP280;63269;53.330;-6.288;2023-03-16T09:22:04;99330.94;;;21.09
74750;BMP280;63269;53.330;-6.288;2023-03-16T09:24:31;99330.94;;;21.09
74750;BMP280;63269;53.330;-6.288;2023-03-16T09:26:56;99324.44;;;21.10
74750;BMP280;63269;53.330;-6.288;2023-03-16T09:29:22;99323.25;;;21.11
74750;BMP280;63269;53.330;-6.288;2023-03-16T09:31:48;99322.47;;;21.11
74750;BMP280;63269;53.330;-6.288;2023-03-16T09:34:14;99330.47;;;21.11
74750;BMP280;63269;53.330;-6.288;2023-03-16T09:36:40;99333.41;;;21.13
74750;BMP280;63269;53.330;-6.288;2023-03-16T09:39:06;99332.50;;;21.16
74750;BMP280;63269;53.330;-6.288;2023-03-16T09:41:47;99332.50;;;21.16
74750;BMP280;63269;53.330;-6.288;2023-03-16T09:47:25;99342.41;;;21.15
74750;BMP280;63269;53.330;-6.288;2023-03-16T09:49:52;99339.00;;;21.15
74750;BMP280;63269;53.330;-6.288;2023-03-16T09:57:56;99337.81;;;21.16
74750;BMP280;63269;53.330;-6.288;2023-03-16T10:00:35;99337.81;;;21.16
74750;BMP280;63269;53.330;-6.288;2023-03-16T10:05:42;99339.28;;;21.17
74750;BMP280;63269;53.330;-6.288;2023-03-16T10:08:25;99339.28;;;21.17
74750;BMP280;63269;53.330;-6.288;2023-03-16T10:13:47;99357.22;;;21.16
74750;BMP280;63269;53.330;-6.288;2023-03-16T10:16:46;99348.19;;;21.14
74750;BMP280;63269;53.330;-6.288;2023-03-16T10:19:20;99349.41;;;21.13
74750;BMP280;63269;53.330;-6.288;2023-03-16T10:21:49;99349.41;;;21.13
74750;BMP280;63269;53.330;-6.288;2023-03-16T10:27:05;99340.16;;;21.08
74750;BMP280;63269;53.330;-6.288;2023-03-16T10:29:35;99340.16;;;21.08
74750;BMP280;63269;53.330;-6.288;2023-03-16T10:32:11;99341.06;;;21.05
74750;BMP280;63269;53.330;-6.288;2023-03-16T10:34:37;99341.06;;;21.05
74750;BMP280;63269;53.330;-6.288;2023-03-16T10:37:04;99337.88;;;21.01
74750;BMP280;63269;53.330;-6.288;2023-03-16T10:39:36;99337.88;;;21.01
74750;BMP280;63269;53.330;-6.288;2023-03-16T10:42:13;99328.16;;;20.98
74750;BMP280;63269;53.330;-6.288;2023-03-16T10:44:39;99332.75;;;20.97
74750;BMP280;63269;53.330;-6.288;2023-03-16T10:47:05;99346.53;;;20.96
74750;BMP280;63269;53.330;-6.288;2023-03-16T10:49:40;99344.81;;;20.93
74750;BMP280;63269;53.330;-6.288;2023-03-16T10:52:28;99344.81;;;20.93
74750;BMP280;63269;53.330;-6.288;2023-03-16T10:54:58;99345.47;;;20.88
74750;BMP280;63269;53.330;-6.288;2023-03-16T10:57:34;99344.03;;;20.87
74750;BMP280;63269;53.330;-6.288;2023-03-16T11:00:21;99344.03;;;20.87
74750;BMP280;63269;53.330;-6.288;2023-03-16T11:02:49;99335.50;;;20.83
74750;BMP280;63269;53.330;-6.288;2023-03-16T11:10:31;99321.38;;;20.76
74750;BMP280;63269;53.330;-6.288;2023-03-16T11:15:50;99322.75;;;20.72
74750;BMP280;63269;53.330;-6.288;2023-03-16T11:18:26;99329.28;;;20.71
74750;BMP280;63269;53.330;-6.288;2023-03-16T11:20:54;99334.38;;;20.69
74750;BMP280;63269;53.330;-6.288;2023-03-16T11:23:27;99338.22;;;20.68
74750;BMP280;63269;53.330;-6.288;2023-03-16T11:25:55;99338.22;;;20.68
74750;BMP280;63269;53.330;-6.288;2023-03-16T11:28:39;99325.84;;;20.65
74750;BMP280;63269;53.330;-6.288;2023-03-16T11:31:27;99335.00;;;20.64
74750;BMP280;63269;53.330;-6.288;2023-03-16T11:33:57;99335.00;;;20.64
74750;BMP280;63269;53.330;-6.288;2023-03-16T11:36:38;99330.09;;;20.56
74750;BMP280;63269;53.330;-6.288;2023-03-16T11:42:29;99345.84;;;20.60
74750;BMP280;63269;53.330;-6.288;2023-03-16T11:53:17;99326.41;;;20.54
74750;BMP280;63269;53.330;-6.288;2023-03-16T11:58:54;99324.94;;;20.53
74750;BMP280;63269;53.330;-6.288;2023-03-16T12:04:05;99327.34;;;20.51
74750;BMP280;63269;53.330;-6.288;2023-03-16T12:14:41;99327.78;;;20.49
74750;BMP280;63269;53.330;-6.288;2023-03-16T12:17:17;99313.75;;;20.49
74750;BMP280;63269;53.330;-6.288;2023-03-16T12:19:50;99313.75;;;20.49
74750;BMP280;63269;53.330;-6.288;2023-03-16T12:22:28;99320.28;;;20.48
74750;BMP280;63269;53.330;-6.288;2023-03-16T12:24:56;99319.81;;;20.49
74750;BMP280;63269;53.330;-6.288;2023-03-16T12:27:35;99325.41;;;20.51
74750;BMP280;63269;53.330;-6.288;2023-03-16T12:39:06;99309.56;;;20.63
74750;BMP280;63269;53.330;-6.288;2023-03-16T12:49:24;99310.91;;;20.73
74750;BMP280;63269;53.330;-6.288;2023-03-16T12:52:01;99318.69;;;20.76
74750;BMP280;63269;53.330;-6.288;2023-03-16T12:54:28;99312.72;;;20.82
74750;BMP280;63269;53.330;-6.288;2023-03-16T12:57:07;99311.03;;;20.84
74750;BMP280;63269;53.330;-6.288;2023-03-16T12:59:44;99311.03;;;20.84
74750;BMP280;63269;53.330;-6.288;2023-03-16T13:02:19;99315.16;;;20.85
74750;BMP280;63269;53.330;-6.288;2023-03-16T13:04:47;99320.78;;;20.87
74750;BMP280;63269;53.330;-6.288;2023-03-16T13:07:22;99321.31;;;20.91
74750;BMP280;63269;53.330;-6.288;2023-03-16T13:09:57;99321.31;;;20.91
74750;BMP280;63269;53.330;-6.288;2023-03-16T13:12:27;99321.31;;;20.91
74750;BMP280;63269;53.330;-6.288;2023-03-16T13:14:53;99328.38;;;20.94
74750;BMP280;63269;53.330;-6.288;2023-03-16T13:19:58;99334.97;;;20.99
74750;BMP280;63269;53.330;-6.288;2023-03-16T13:22:27;99339.81;;;21.00
74750;BMP280;63269;53.330;-6.288;2023-03-16T13:24:57;99334.31;;;21.04
74750;BMP280;63269;53.330;-6.288;2023-03-16T13:27:29;99334.31;;;21.04
74750;BMP280;63269;53.330;-6.288;2023-03-16T13:29:58;99340.34;;;21.05
74750;BMP280;63269;53.330;-6.288;2023-03-16T13:32:25;99329.22;;;21.06
74750;BMP280;63269;53.330;-6.288;2023-03-16T13:34:58;99322.94;;;21.09
74750;BMP280;63269;53.330;-6.288;2023-03-16T13:37:24;99322.94;;;21.09
74750;BMP280;63269;53.330;-6.288;2023-03-16T13:39:54;99322.94;;;21.09
74750;BMP280;63269;53.330;-6.288;2023-03-16T13:42:21;99315.66;;;21.10
74750;BMP280;63269;53.330;-6.288;2023-03-16T13:44:51;99322.75;;;21.13
74750;BMP280;63269;53.330;-6.288;2023-03-16T13:47:19;99320.09;;;21.13
74750;BMP280;63269;53.330;-6.288;2023-03-16T13:49:50;99312.81;;;21.13
74750;BMP280;63269;53.330;-6.288;2023-03-16T13:52:28;99321.81;;;21.16
74750;BMP280;63269;53.330;-6.288;2023-03-16T13:54:58;99323.28;;;21.17
74750;BMP280;63269;53.330;-6.288;2023-03-16T13:57:26;99323.28;;;21.17
74750;BMP280;63269;53.330;-6.288;2023-03-16T14:00:04;99315.28;;;21.17
74750;BMP280;63269;53.330;-6.288;2023-03-16T14:02:35;99319.88;;;21.16
74750;BMP280;63269;53.330;-6.288;2023-03-16T14:05:18;99311.16;;;21.16
74750;BMP280;63269;53.330;-6.288;2023-03-16T14:07:48;99312.34;;;21.15
74750;BMP280;63269;53.330;-6.288;2023-03-16T14:10:16;99312.34;;;21.15
74750;BMP280;63269;53.330;-6.288;2023-03-16T14:12:55;99307.47;;;21.13
74750;BMP280;63269;53.330;-6.288;2023-03-16T14:15:24;99308.16;;;21.08
74750;BMP280;63269;53.330;-6.288;2023-03-16T14:17:51;99294.84;;;21.08
74750;BMP280;63269;53.330;-6.288;2023-03-16T14:20:22;99294.84;;;21.08
74750;BMP280;63269;53.330;-6.288;2023-03-16T14:22:51;99294.13;;;21.08
74750;BMP280;63269;53.330;-6.288;2023-03-16T14:25:24;99285.84;;;21.06
74750;BMP280;63269;53.330;-6.288;2023-03-16T14:28:01;99296.06;;;21.07
74750;BMP280;63269;53.330;-6.288;2023-03-16T14:30:30;99295.53;;;21.03
74750;BMP280;63269;53.330;-6.288;2023-03-16T14:33:04;99295.53;;;21.03
74750;BMP280;63269;53.330;-6.288;2023-03-16T14:35:41;99302.75;;;21.03
74750;BMP280;63269;53.330;-6.288;2023-03-16T14:38:32;99297.91;;;21.01
74750;BMP280;63269;53.330;-6.288;2023-03-16T14:43:36;99293.03;;;20.99
74750;BMP280;63269;53.330;-6.288;2023-03-16T14:46:06;99281.38;;;20.97
74750;BMP280;63269;53.330;-6.288;2023-03-16T14:48:33;99281.38;;;20.97
74750;BMP280;63269;53.330;-6.288;2023-03-16T14:51:01;99270.47;;;20.95
74750;BMP280;63269;53.330;-6.288;2023-03-16T14:53:28;99270.47;;;20.95
74750;BMP280;63269;53.330;-6.288;2023-03-16T14:55:54;99274.31;;;20.94
74750;BMP280;63269;53.330;-6.288;2023-03-16T14:58:20;99271.38;;;20.92
74750;BMP280;63269;53.330;-6.288;2023-03-16T15:00:46;99271.38;;;20.92
74750;BMP280;63269;53.330;-6.288;2023-03-16T15:03:14;99271.13;;;20.90
74750;BMP280;63269;53.330;-6.288;2023-03-16T15:05:45;99273.53;;;20.88
74750;BMP280;63269;53.330;-6.288;2023-03-16T15:08:23;99273.53;;;20.88
74750;BMP280;63269;53.330;-6.288;2023-03-16T15:10:52;99269.88;;;20.85
74750;BMP280;63269;53.330;-6.288;2023-03-16T15:13:20;99269.88;;;20.85
74750;BMP280;63269;53.330;-6.288;2023-03-16T15:16:10;99269.63;;;20.83
74750;BMP280;63269;53.330;-6.288;2023-03-16T15:18:36;99274.22;;;20.83
74750;BMP280;63269;53.330;-6.288;2023-03-16T15:21:08;99274.22;;;20.83
74750;BMP280;63269;53.330;-6.288;2023-03-16T15:23:36;99282.41;;;20.79
74750;BMP280;63269;53.330;-6.288;2023-03-16T15:26:01;99282.41;;;20.79
74750;BMP280;63269;53.330;-6.288;2023-03-16T15:28:29;99276.34;;;20.78